Time;durP1;ratioP1;P1;durP2;ratioP2;P2;SDS_P1;SDS_P2;PMS_P1;PMS_P2;Temp;Humidity;BMP_temperature;BMP_pressure;BME280_temperature;BME280_humidity;BME280_pressure;Samples;Min_cycle;Max_cycle;Signal;HPM_P1;HPM_P2
2020/12/31 00:04:32;;;;;;;102.70;59.07;;;;;;;6.31;70.26;98161.11;249872;1132;115066;-87
2020/12/31 00:09:35;;;;;;;94.60;54.80;;;;;;;6.33;70.11;98161.03;249734;1132;115397;-86
2020/12/31 00:14:38;;;;;;;105.30;58.93;;;;;;;6.33;69.78;98164.52;248977;1133;115151;-87
2020/12/31 00:19:40;;;;;;;97.37;57.62;;;;;;;6.31;69.44;98166.39;252097;1133;115406;-87
2020/12/31 00:24:43;;;;;;;98.83;56.33;;;;;;;6.29;69.54;98170.94;251810;1132;114930;-88
2020/12/31 00:29:45;;;;;;;95.17;56.13;;;;;;;6.27;69.72;98174.59;251805;1135;115057;-87
2020/12/31 00:34:47;;;;;;;96.67;57.43;;;;;;;6.28;69.80;98185.06;251857;1132;114786;-87
2020/12/31 00:39:50;;;;;;;103.37;61.73;;;;;;;6.31;69.76;98194.61;251966;1132;114885;-89
2020/12/31 00:44:52;;;;;;;100.65;58.90;;;;;;;6.32;69.53;98185.77;251884;1132;115295;-87
2020/12/31 00:49:54;;;;;;;99.40;59.03;;;;;;;6.40;69.96;98196.73;251305;1132;115101;-82
2020/12/31 00:54:57;;;;;;;98.20;57.47;;;;;;;6.40;69.80;98186.16;249830;1132;115830;-87
2020/12/31 01:00:00;;;;;;;104.53;58.00;;;;;;;6.40;69.69;98199.37;251911;1132;115192;-82
2020/12/31 01:05:11;;;;;;;94.17;54.57;;;;;;;6.35;70.15;98191.72;251636;1132;115525;-83
2020/12/31 01:10:13;;;;;;;97.90;55.33;;;;;;;6.24;69.26;98196.76;249926;1132;114794;-86
2020/12/31 01:15:15;;;;;;;111.27;61.97;;;;;;;6.18;69.33;98196.26;248406;1132;116054;-88
2020/12/31 01:20:18;;;;;;;104.00;58.70;;;;;;;6.20;70.17;98189.11;249537;1134;115116;-88
2020/12/31 01:25:20;;;;;;;110.33;62.40;;;;;;;6.21;69.87;98191.64;249825;1132;115377;-87
2020/12/31 01:30:22;;;;;;;107.23;62.23;;;;;;;6.19;69.78;98188.27;251350;1134;115284;-80
2020/12/31 01:35:25;;;;;;;103.00;59.00;;;;;;;6.16;70.07;98199.00;251050;1133;115277;-82
2020/12/31 01:40:27;;;;;;;108.83;58.43;;;;;;;6.04;69.88;98204.98;251849;1132;115123;-82
2020/12/31 01:45:30;;;;;;;104.60;56.53;;;;;;;5.95;69.25;98216.09;251990;1135;115001;-85
2020/12/31 01:50:32;;;;;;;99.57;53.90;;;;;;;5.87;69.92;98212.02;251912;1132;115334;-84
2020/12/31 01:55:35;;;;;;;112.40;58.37;;;;;;;5.81;69.15;98217.67;251859;1132;115186;-83
2020/12/31 02:00:37;;;;;;;106.75;59.90;;;;;;;5.80;69.71;98229.16;251853;1132;115496;-83
2020/12/31 02:05:40;;;;;;;106.37;59.33;;;;;;;5.84;69.90;98228.07;251833;1132;115358;-83
2020/12/31 02:10:43;;;;;;;100.03;56.97;;;;;;;5.90;69.64;98232.13;251742;1132;115270;-82
2020/12/31 02:16:14;;;;;;;100.93;56.20;;;;;;;5.92;69.72;98241.72;252005;1132;115304;-89
2020/12/31 02:21:18;;;;;;;99.63;55.70;;;;;;;5.90;69.78;98237.41;251088;1132;114929;-88
2020/12/31 02:26:23;;;;;;;93.72;54.60;;;;;;;5.88;69.16;98247.23;251086;1133;114814;-90
2020/12/31 02:31:26;;;;;;;100.00;53.00;;;;;;;5.84;69.50;98254.47;251569;1133;114885;-84
2020/12/31 02:36:31;;;;;;;97.93;54.87;;;;;;;5.78;70.14;98249.52;251968;1133;114992;-85
2020/12/31 02:41:35;;;;;;;98.00;53.45;;;;;;;5.71;70.02;98258.72;249879;1132;115242;-89
2020/12/31 02:46:37;;;;;;;91.57;50.07;;;;;;;5.64;69.71;98254.72;250071;1134;115911;-84
2020/12/31 02:51:40;;;;;;;90.83;51.57;;;;;;;5.56;69.81;98251.62;251942;1132;114978;-85
2020/12/31 02:56:43;;;;;;;87.77;46.23;;;;;;;5.46;70.07;98254.75;251765;1132;115091;-84
2020/12/31 03:01:45;;;;;;;83.37;44.63;;;;;;;5.41;70.38;98262.08;251781;1132;115016;-82
2020/12/31 03:06:48;;;;;;;88.83;45.70;;;;;;;5.29;69.89;98275.06;251823;1132;115006;-84
2020/12/31 03:11:50;;;;;;;98.63;50.53;;;;;;;5.21;70.36;98267.56;251689;1132;115165;-83
2020/12/31 03:16:53;;;;;;;94.58;46.60;;;;;;;5.22;70.01;98259.55;251820;1133;115003;-91
2020/12/31 03:21:55;;;;;;;88.87;44.20;;;;;;;5.24;69.19;98248.09;250709;1132;116354;-89
2020/12/31 03:26:57;;;;;;;107.83;45.13;;;;;;;5.25;70.34;98236.59;250261;1132;115253;-88
2020/12/31 03:32:00;;;;;;;90.60;41.75;;;;;;;5.22;70.49;98235.81;250584;1132;115428;-91
2020/12/31 03:37:02;;;;;;;92.83;40.27;;;;;;;5.16;69.90;98240.56;249683;1133;114813;-85
2020/12/31 03:42:05;;;;;;;81.85;38.20;;;;;;;5.11;69.46;98251.37;251954;1132;114794;-92
2020/12/31 03:47:07;;;;;;;81.57;36.63;;;;;;;5.00;69.93;98253.72;250629;1134;115818;-92
2020/12/31 03:52:10;;;;;;;85.63;39.93;;;;;;;4.94;69.71;98251.40;249562;1132;114782;-90
2020/12/31 03:57:12;;;;;;;84.60;38.30;;;;;;;4.94;69.99;98264.58;247634;1134;115749;-90
2020/12/31 04:02:15;;;;;;;80.93;37.07;;;;;;;4.94;69.83;98256.67;249702;1132;115097;-92
2020/12/31 04:07:17;;;;;;;83.03;37.48;;;;;;;4.90;70.25;98278.86;251447;1132;115262;-91
2020/12/31 04:12:19;;;;;;;85.62;34.98;;;;;;;4.86;70.04;98261.50;251083;1132;115093;-91
2020/12/31 04:17:22;;;;;;;86.20;32.70;;;;;;;4.75;69.78;98269.92;250338;1132;115212;-91
2020/12/31 04:22:24;;;;;;;90.10;34.13;;;;;;;4.70;70.53;98293.05;250888;1132;115068;-84
2020/12/31 04:27:26;;;;;;;104.70;32.80;;;;;;;4.63;70.31;98265.30;252054;1132;114791;-84
2020/12/31 04:32:29;;;;;;;82.63;34.97;;;;;;;4.52;70.22;98268.48;249584;1132;115350;-86
2020/12/31 04:37:31;;;;;;;77.90;33.30;;;;;;;4.53;70.35;98264.91;250933;1134;114731;-86
2020/12/31 04:42:36;;;;;;;68.53;31.40;;;;;;;4.48;70.09;98273.05;251823;1135;115381;-85
2020/12/31 04:47:45;;;;;;;79.75;33.65;;;;;;;4.42;70.44;98272.50;252016;1134;115044;-87
2020/12/31 04:52:48;;;;;;;70.57;31.50;;;;;;;4.37;70.20;98271.86;251936;1134;114813;-87
2020/12/31 04:57:51;;;;;;;64.07;28.15;;;;;;;4.34;70.00;98267.58;252085;1133;114800;-85
2020/12/31 05:02:54;;;;;;;67.60;30.37;;;;;;;4.31;69.95;98282.69;252036;1134;115084;-85
2020/12/31 05:08:00;;;;;;;89.00;32.48;;;;;;;4.24;69.98;98277.70;251976;1132;115005;-85
2020/12/31 05:13:07;;;;;;;79.50;34.50;;;;;;;4.23;70.72;98272.53;251878;1133;115163;-81
2020/12/31 05:18:22;;;;;;;82.67;33.90;;;;;;;4.25;70.77;98273.32;251753;1132;114730;-80
2020/12/31 05:23:27;;;;;;;85.87;33.10;;;;;;;4.33;70.30;98280.84;251832;1132;115024;-81
2020/12/31 05:28:33;;;;;;;79.20;33.83;;;;;;;4.31;70.63;98286.17;251743;1133;115309;-78
2020/12/31 05:33:37;;;;;;;78.87;32.90;;;;;;;4.31;70.37;98294.06;252045;1133;114994;-77
2020/12/31 05:38:39;;;;;;;73.17;29.57;;;;;;;4.31;70.11;98301.13;252006;1132;114528;-78
2020/12/31 05:43:42;;;;;;;68.10;30.47;;;;;;;4.29;70.18;98303.00;251624;1134;115011;-79
2020/12/31 05:48:44;;;;;;;75.90;31.40;;;;;;;4.29;70.62;98313.53;252024;1132;114815;-78
2020/12/31 05:53:51;;;;;;;68.47;29.13;;;;;;;4.26;70.78;98320.64;251965;1132;114893;-79
2020/12/31 05:59:24;;;;;;;76.37;33.13;;;;;;;4.29;70.53;98310.89;251873;1132;114766;-78
2020/12/31 06:04:29;;;;;;;82.10;34.43;;;;;;;4.38;70.08;98316.58;251995;1132;115168;-79
2020/12/31 06:09:33;;;;;;;72.30;30.70;;;;;;;4.41;69.83;98319.03;252048;1132;115117;-79
2020/12/31 06:14:39;;;;;;;70.60;30.95;;;;;;;4.39;70.52;98315.64;251986;1132;114895;-79
2020/12/31 06:19:51;;;;;;;78.07;30.57;;;;;;;4.37;70.07;98306.95;251747;1132;114912;-78
2020/12/31 06:25:04;;;;;;;78.43;31.00;;;;;;;4.38;70.09;98311.31;252043;1132;114987;-77
2020/12/31 06:30:07;;;;;;;70.47;29.40;;;;;;;4.34;70.28;98316.78;251777;1132;115156;-77
2020/12/31 06:35:10;;;;;;;83.30;31.77;;;;;;;4.35;70.86;98323.74;251658;1131;114914;-78
2020/12/31 06:40:27;;;;;;;81.50;31.53;;;;;;;4.33;69.97;98321.20;251863;1132;114881;-78
2020/12/31 06:45:40;;;;;;;71.47;31.67;;;;;;;4.31;70.47;98317.77;251860;1135;115430;-78
2020/12/31 06:51:00;;;;;;;65.90;28.50;;;;;;;4.31;70.40;98319.55;251753;1132;114985;-78
2020/12/31 06:56:09;;;;;;;75.87;30.07;;;;;;;4.26;70.00;98317.16;251984;1131;114841;-78
2020/12/31 07:01:30;;;;;;;68.77;29.80;;;;;;;4.27;70.83;98321.48;251934;1132;114871;-78
2020/12/31 07:06:33;;;;;;;60.55;27.17;;;;;;;4.24;70.40;98319.84;251874;1132;115205;-79
2020/12/31 07:11:37;;;;;;;58.40;23.23;;;;;;;4.20;70.15;98327.98;251787;1132;114967;-79
2020/12/31 07:16:56;;;;;;;61.18;26.05;;;;;;;4.14;70.45;98329.11;251934;1133;114757;-78
2020/12/31 07:21:58;;;;;;;57.53;26.00;;;;;;;4.16;70.05;98344.86;251889;1132;115592;-77
2020/12/31 07:27:01;;;;;;;70.53;27.47;;;;;;;4.14;69.98;98346.69;251441;1132;115278;-77
2020/12/31 07:32:03;;;;;;;64.87;27.02;;;;;;;4.12;70.32;98346.78;251589;1132;114868;-76
2020/12/31 07:37:06;;;;;;;65.17;27.33;;;;;;;4.14;69.81;98346.69;249428;1132;115036;-79
2020/12/31 07:42:14;;;;;;;69.80;28.17;;;;;;;4.14;70.32;98350.17;251623;1134;114932;-78
2020/12/31 07:47:18;;;;;;;66.50;27.83;;;;;;;4.13;70.30;98356.38;251888;1133;114841;-78
2020/12/31 07:52:20;;;;;;;68.20;28.70;;;;;;;4.20;70.56;98357.80;251664;1132;114820;-79
2020/12/31 07:57:22;;;;;;;64.35;28.95;;;;;;;4.28;70.07;98357.45;251653;1132;114887;-78
2020/12/31 08:02:26;;;;;;;62.30;26.33;;;;;;;4.32;70.66;98361.64;251689;1132;115238;-77
2020/12/31 08:07:29;;;;;;;57.20;27.20;;;;;;;4.37;70.87;98364.05;251785;1133;114788;-76
2020/12/31 08:12:31;;;;;;;60.73;27.27;;;;;;;4.40;70.09;98362.12;252069;1132;114678;-77
2020/12/31 08:17:34;;;;;;;58.80;25.90;;;;;;;4.40;70.55;98359.48;251753;1132;114735;-76
2020/12/31 08:22:42;;;;;;;56.15;26.15;;;;;;;4.40;70.51;98371.80;251696;1132;114821;-77
2020/12/31 08:27:46;;;;;;;57.27;25.77;;;;;;;4.37;69.55;98377.22;251746;1132;114815;-79
2020/12/31 08:32:50;;;;;;;63.98;27.95;;;;;;;4.34;69.61;98382.63;251708;1133;114828;-78
2020/12/31 08:38:08;;;;;;;62.33;29.13;;;;;;;4.40;69.89;98385.83;251929;1132;114675;-76
2020/12/31 08:43:19;;;;;;;62.10;28.83;;;;;;;4.58;70.44;98394.63;251812;1132;115128;-76
2020/12/31 08:48:29;;;;;;;64.42;29.57;;;;;;;4.63;69.95;98399.69;251661;1134;115026;-78
2020/12/31 08:53:33;;;;;;;55.65;26.40;;;;;;;4.67;69.64;98412.63;251887;1132;114564;-78
2020/12/31 08:58:36;;;;;;;51.77;26.20;;;;;;;4.70;69.88;98407.22;251733;1134;114838;-78
2020/12/31 09:03:38;;;;;;;60.07;27.33;;;;;;;4.73;70.47;98401.80;251836;1132;114941;-78
2020/12/31 09:08:48;;;;;;;56.73;26.23;;;;;;;4.84;70.04;98393.36;251769;1133;114568;-78
2020/12/31 09:13:52;;;;;;;48.15;24.85;;;;;;;4.89;69.54;98398.40;251865;1133;114967;-78
2020/12/31 09:19:00;;;;;;;47.50;24.43;;;;;;;4.90;69.48;98394.86;251797;1132;114824;-78
2020/12/31 09:24:18;;;;;;;52.00;25.77;;;;;;;5.01;69.29;98389.05;251956;1133;114547;-78
2020/12/31 09:29:21;;;;;;;46.37;25.43;;;;;;;5.14;69.63;98379.59;251846;1134;114873;-78
2020/12/31 09:34:24;;;;;;;46.03;24.20;;;;;;;5.22;69.94;98380.89;251782;1132;115062;-78
2020/12/31 09:39:27;;;;;;;49.18;25.20;;;;;;;5.32;69.99;98372.52;251808;1132;115241;-76
2020/12/31 09:44:29;;;;;;;49.27;24.30;;;;;;;5.38;69.58;98375.69;251907;1132;114730;-79
2020/12/31 09:49:32;;;;;;;40.37;22.10;;;;;;;5.42;69.47;98371.95;251746;1134;114887;-78
2020/12/31 09:54:34;;;;;;;44.43;22.60;;;;;;;5.39;68.41;98376.54;251918;1132;114745;-78
2020/12/31 09:59:37;;;;;;;41.87;21.40;;;;;;;5.29;67.88;98370.87;251758;1134;114689;-78
2020/12/31 10:04:40;;;;;;;45.90;22.07;;;;;;;5.26;68.20;98363.12;251798;1132;114777;-78
2020/12/31 10:09:42;;;;;;;45.67;21.50;;;;;;;5.20;68.04;98363.46;251786;1134;115897;-78
2020/12/31 10:14:46;;;;;;;49.60;25.10;;;;;;;5.22;68.54;98359.79;251745;1132;115157;-76
2020/12/31 10:19:48;;;;;;;46.63;23.53;;;;;;;5.29;68.71;98354.20;251646;1133;114473;-75
2020/12/31 10:24:51;;;;;;;42.17;23.03;;;;;;;5.37;68.85;98346.77;252000;1132;115011;-75
2020/12/31 10:29:53;;;;;;;43.40;23.50;;;;;;;5.39;68.91;98340.45;251709;1133;114958;-76
2020/12/31 10:34:56;;;;;;;45.60;22.43;;;;;;;5.44;69.15;98341.08;251893;1132;115069;-76
2020/12/31 10:40:04;;;;;;;40.57;21.97;;;;;;;5.42;68.35;98332.37;251845;1132;115256;-77
2020/12/31 10:45:07;;;;;;;41.10;21.85;;;;;;;5.40;68.23;98320.19;249647;1132;114877;-79
2020/12/31 10:50:09;;;;;;;39.73;22.43;;;;;;;5.37;68.86;98317.74;251734;1132;114787;-78
2020/12/31 10:55:12;;;;;;;41.20;22.60;;;;;;;5.34;67.82;98326.66;251799;1132;114811;-77
2020/12/31 11:00:14;;;;;;;42.23;20.90;;;;;;;5.31;67.79;98318.91;251897;1133;114932;-77
2020/12/31 11:05:17;;;;;;;40.53;21.87;;;;;;;5.30;68.39;98319.84;250150;1132;115063;-77
2020/12/31 11:10:20;;;;;;;44.10;21.40;;;;;;;5.35;68.42;98307.25;251959;1132;136300;-77
2020/12/31 11:15:22;;;;;;;35.47;19.47;;;;;;;5.33;67.10;98311.77;250445;1132;115142;-75
2020/12/31 11:20:25;;;;;;;32.25;18.50;;;;;;;5.34;67.64;98300.28;249671;1134;116755;-76
2020/12/31 11:25:28;;;;;;;39.73;21.33;;;;;;;5.31;67.93;98284.61;250835;1132;115018;-76
2020/12/31 11:30:35;;;;;;;37.47;20.03;;;;;;;5.21;67.91;98288.66;250787;1134;114979;-77
2020/12/31 11:35:38;;;;;;;35.47;19.40;;;;;;;5.17;67.92;98281.85;251392;1132;114956;-78
2020/12/31 11:40:41;;;;;;;31.50;19.43;;;;;;;5.22;68.81;98280.66;251275;1133;115004;-79
2020/12/31 11:45:46;;;;;;;40.13;18.53;;;;;;;5.29;67.56;98272.42;248215;1134;117508;-76
2020/12/31 11:50:51;;;;;;;34.67;20.00;;;;;;;5.35;68.30;98261.55;249366;1132;116692;-78
2020/12/31 11:55:59;;;;;;;34.80;19.55;;;;;;;5.48;67.57;98262.60;249576;1132;114982;-78
2020/12/31 12:01:07;;;;;;;35.30;21.40;;;;;;;5.60;67.72;98258.44;251108;1132;115339;-77
2020/12/31 12:06:10;;;;;;;39.23;21.50;;;;;;;5.71;67.87;98261.36;251238;1132;115313;-77
2020/12/31 12:11:13;;;;;;;37.98;20.62;;;;;;;5.73;67.33;98254.19;252052;1132;115018;-79
2020/12/31 12:16:20;;;;;;;33.67;18.53;;;;;;;5.75;67.21;98247.05;251902;1135;115074;-79
2020/12/31 12:21:22;;;;;;;33.23;18.90;;;;;;;5.75;67.00;98247.05;252090;1132;114783;-79
2020/12/31 12:26:32;;;;;;;38.53;19.77;;;;;;;5.80;67.23;98244.99;251623;1132;115083;-80
2020/12/31 12:31:39;;;;;;;35.60;21.37;;;;;;;5.84;67.78;98241.27;251899;1133;115294;-79
2020/12/31 12:36:47;;;;;;;37.73;21.17;;;;;;;5.90;67.83;98237.41;251703;1132;115054;-79
2020/12/31 12:41:49;;;;;;;35.00;21.23;;;;;;;5.92;67.40;98239.08;251806;1132;115034;-77
2020/12/31 12:46:52;;;;;;;41.70;22.33;;;;;;;5.99;67.79;98234.30;251976;1132;115653;-77
2020/12/31 12:51:54;;;;;;;40.37;22.80;;;;;;;6.07;66.88;98233.86;251749;1133;115207;-78
2020/12/31 12:56:56;;;;;;;42.48;23.27;;;;;;;6.09;67.64;98238.13;251907;1132;115150;-79
2020/12/31 13:01:59;;;;;;;42.90;24.27;;;;;;;6.11;67.49;98238.90;251958;1134;116217;-79
2020/12/31 13:07:01;;;;;;;46.00;24.73;;;;;;;6.11;66.99;98235.38;251897;1134;115384;-79
2020/12/31 13:12:04;;;;;;;41.97;23.33;;;;;;;6.05;66.47;98235.75;251738;1132;114771;-77
2020/12/31 13:17:06;;;;;;;43.30;24.75;;;;;;;5.96;66.19;98236.27;251963;1134;114727;-79
2020/12/31 13:22:09;;;;;;;42.90;23.53;;;;;;;5.90;67.64;98235.63;251740;1132;114931;-79
2020/12/31 13:27:11;;;;;;;44.03;24.15;;;;;;;5.85;66.69;98234.20;251990;1132;114989;-79
2020/12/31 13:32:13;;;;;;;35.07;21.17;;;;;;;5.87;66.68;98234.94;251847;1135;115337;-79
2020/12/31 13:37:17;;;;;;;38.27;20.87;;;;;;;5.83;67.30;98230.78;251662;1132;114845;-79
2020/12/31 13:42:19;;;;;;;35.50;21.27;;;;;;;5.80;67.17;98242.35;251944;1132;115129;-79
2020/12/31 13:47:22;;;;;;;43.70;25.53;;;;;;;5.82;66.61;98240.49;251895;1132;114851;-79
2020/12/31 13:52:25;;;;;;;51.25;29.10;;;;;;;5.82;66.53;98237.85;251750;1132;114903;-79
2020/12/31 13:57:27;;;;;;;57.63;30.73;;;;;;;5.82;66.69;98237.85;251721;1133;115198;-77
2020/12/31 14:02:29;;;;;;;49.13;29.07;;;;;;;5.79;66.38;98242.45;251995;1133;115246;-79
2020/12/31 14:07:32;;;;;;;56.95;32.50;;;;;;;5.74;66.58;98240.08;251896;1135;115072;-76
2020/12/31 14:12:46;;;;;;;86.23;43.17;;;;;;;5.69;67.25;98242.10;251895;1132;114847;-76
2020/12/31 14:17:48;;;;;;;70.97;38.78;;;;;;;5.61;66.86;98234.61;251975;1133;114361;-80
2020/12/31 14:22:51;;;;;;;55.97;32.03;;;;;;;5.53;67.33;98235.95;252047;1132;115076;-79
2020/12/31 14:27:56;;;;;;;49.77;27.60;;;;;;;5.34;66.13;98241.39;251813;1132;116027;-77
2020/12/31 14:33:04;;;;;;;47.87;29.07;;;;;;;5.14;66.13;98238.02;248400;1134;115171;-77
2020/12/31 14:38:07;;;;;;;59.23;34.70;;;;;;;4.98;66.30;98245.88;251867;1133;114919;-77
2020/12/31 14:43:09;;;;;;;58.40;32.40;;;;;;;4.88;66.14;98242.02;251819;1133;114842;-77
2020/12/31 14:48:12;;;;;;;61.60;34.10;;;;;;;4.81;66.74;98240.63;251857;1134;114959;-77
2020/12/31 14:53:15;;;;;;;60.00;33.03;;;;;;;4.73;66.96;98240.19;251727;1133;115473;-77
2020/12/31 14:58:17;;;;;;;56.90;32.60;;;;;;;4.64;67.28;98240.64;251553;1133;115025;-84
2020/12/31 15:03:19;;;;;;;62.63;33.60;;;;;;;4.49;66.64;98237.86;250841;1132;115495;-81
2020/12/31 15:08:22;;;;;;;63.40;36.97;;;;;;;4.29;66.50;98253.80;251930;1132;115698;-81
2020/12/31 15:13:49;;;;;;;61.57;32.87;;;;;;;4.03;66.93;98255.06;249287;1133;115055;-81
2020/12/31 15:18:56;;;;;;;57.17;31.53;;;;;;;3.79;67.17;98264.98;250878;1132;115297;-86
2020/12/31 15:23:59;;;;;;;55.30;29.20;;;;;;;3.61;66.96;98268.48;249259;1134;115149;-83
2020/12/31 15:29:05;;;;;;;64.57;31.80;;;;;;;3.42;67.29;98264.05;251918;1132;115201;-82
2020/12/31 15:34:22;;;;;;;57.93;30.97;;;;;;;3.36;67.83;98263.47;248328;1132;115556;-84
2020/12/31 15:39:29;;;;;;;58.33;31.10;;;;;;;3.28;67.67;98263.83;248199;1132;115261;-79
2020/12/31 15:44:31;;;;;;;53.58;31.27;;;;;;;3.22;67.57;98266.73;251741;1132;115838;-84
2020/12/31 15:49:34;;;;;;;66.40;32.83;;;;;;;3.15;67.83;98262.66;247185;1134;115034;-85
2020/12/31 15:54:36;;;;;;;68.90;29.40;;;;;;;3.01;67.60;98271.16;248321;1132;114853;-84
2020/12/31 15:59:39;;;;;;;58.08;31.02;;;;;;;2.88;68.04;98265.58;251789;1132;115301;-84
2020/12/31 16:04:42;;;;;;;63.50;32.97;;;;;;;2.88;68.25;98267.36;251784;1132;115021;-84
2020/12/31 16:09:44;;;;;;;58.40;30.90;;;;;;;2.95;68.30;98258.28;251950;1132;114763;-84
2020/12/31 16:14:46;;;;;;;69.23;33.13;;;;;;;3.06;68.65;98264.80;251962;1132;116334;-77
2020/12/31 16:19:50;;;;;;;87.17;43.30;;;;;;;3.07;68.62;98277.01;251967;1132;115105;-76
2020/12/31 16:24:53;;;;;;;75.92;36.68;;;;;;;3.11;68.49;98276.88;248805;1132;115106;-83
2020/12/31 16:29:56;;;;;;;72.60;37.43;;;;;;;3.11;68.21;98269.84;251927;1133;115150;-81
2020/12/31 16:35:01;;;;;;;90.73;49.00;;;;;;;3.11;68.66;98271.62;249539;1132;114993;-77
2020/12/31 16:40:07;;;;;;;73.17;36.67;;;;;;;3.10;68.38;98269.92;251908;1132;115049;-76
2020/12/31 16:45:11;;;;;;;73.73;36.80;;;;;;;3.03;68.17;98272.81;251863;1132;115211;-76
2020/12/31 16:50:14;;;;;;;72.72;36.33;;;;;;;2.99;68.26;98265.98;251845;1132;114440;-72
2020/12/31 16:55:18;;;;;;;59.97;31.93;;;;;;;2.94;68.30;98267.10;252006;1133;115872;-77
2020/12/31 17:00:21;;;;;;;57.35;31.27;;;;;;;2.91;68.18;98272.48;251932;1135;114902;-76
2020/12/31 17:05:24;;;;;;;65.17;33.78;;;;;;;2.88;68.37;98269.98;251900;1132;115203;-73
2020/12/31 17:10:27;;;;;;;59.77;33.37;;;;;;;2.82;68.26;98277.23;252128;1132;114859;-75
2020/12/31 17:15:29;;;;;;;65.65;31.25;;;;;;;2.76;68.17;98276.64;252092;1135;115008;-81
2020/12/31 17:20:32;;;;;;;76.00;35.17;;;;;;;2.67;68.96;98279.65;252156;1135;114992;-81
2020/12/31 17:25:35;;;;;;;76.23;37.50;;;;;;;2.58;68.34;98292.27;251787;1133;114950;-81
2020/12/31 17:30:38;;;;;;;79.03;38.27;;;;;;;2.50;67.89;98286.45;251986;1138;114933;-78
2020/12/31 17:35:49;;;;;;;78.00;39.73;;;;;;;2.51;68.92;98290.78;252088;1131;114864;-79
2020/12/31 17:40:52;;;;;;;70.37;38.13;;;;;;;2.59;68.65;98293.11;248195;1132;115007;-79
2020/12/31 17:45:54;;;;;;;84.80;43.50;;;;;;;2.58;68.90;98289.64;251666;1132;115243;-80
2020/12/31 17:50:57;;;;;;;80.30;40.50;;;;;;;2.57;68.82;98297.56;251939;1132;114917;-75
2020/12/31 17:56:00;;;;;;;72.13;38.20;;;;;;;2.58;69.04;98309.77;251808;1133;114866;-79
2020/12/31 18:01:03;;;;;;;76.97;38.43;;;;;;;2.58;68.71;98307.14;252011;1135;114693;-80
2020/12/31 18:06:09;;;;;;;75.00;39.98;;;;;;;2.59;68.96;98301.84;252059;1132;114796;-81
2020/12/31 18:11:11;;;;;;;89.57;44.20;;;;;;;2.65;69.29;98299.86;251782;1132;114839;-79
2020/12/31 18:16:14;;;;;;;88.73;43.47;;;;;;;2.71;69.09;98296.98;251930;1135;115237;-80
2020/12/31 18:21:34;;;;;;;84.73;43.60;;;;;;;2.76;68.85;98289.77;251862;1132;114901;-81
2020/12/31 18:26:37;;;;;;;89.33;45.53;;;;;;;2.80;69.25;98288.72;252017;1132;114812;-81
2020/12/31 18:31:39;;;;;;;89.03;47.57;;;;;;;2.84;69.37;98293.77;251868;1135;114920;-80
2020/12/31 18:36:41;;;;;;;96.20;47.27;;;;;;;2.84;68.95;98295.55;252086;1132;115067;-78
2020/12/31 18:41:43;;;;;;;85.07;43.43;;;;;;;2.81;68.87;98288.64;251731;1132;115023;-80
2020/12/31 18:46:46;;;;;;;87.37;45.60;;;;;;;2.79;68.79;98290.50;252047;1134;115202;-79
2020/12/31 18:51:48;;;;;;;82.37;42.47;;;;;;;2.78;68.92;98287.91;251959;1135;115892;-78
2020/12/31 18:56:50;;;;;;;84.87;42.35;;;;;;;2.74;68.79;98289.83;251924;1132;114824;-81
2020/12/31 19:01:53;;;;;;;86.43;42.77;;;;;;;2.73;68.75;98290.75;251885;1132;115012;-79
2020/12/31 19:06:55;;;;;;;81.67;44.07;;;;;;;2.74;68.89;98287.20;251747;1132;115443;-73
2020/12/31 19:11:59;;;;;;;85.63;45.73;;;;;;;2.78;69.02;98285.29;252020;1133;114871;-81
2020/12/31 19:17:02;;;;;;;93.57;49.53;;;;;;;2.78;69.00;98282.66;251493;1132;115498;-78
2020/12/31 19:22:05;;;;;;;95.70;51.35;;;;;;;2.75;68.86;98283.67;251826;1134;116672;-75
2020/12/31 19:27:07;;;;;;;108.50;54.50;;;;;;;2.79;68.91;98284.39;252016;1133;114900;-73
2020/12/31 19:32:09;;;;;;;105.83;48.30;;;;;;;2.78;69.08;98280.89;251896;1133;115424;-80
2020/12/31 19:37:13;;;;;;;102.30;47.97;;;;;;;2.74;69.28;98278.47;252238;1132;115046;-78
2020/12/31 19:42:27;;;;;;;117.40;53.98;;;;;;;2.76;69.18;98281.89;252083;1132;114983;-76
2020/12/31 19:47:31;;;;;;;120.40;55.17;;;;;;;2.77;69.09;98286.22;252133;1135;115232;-78
2020/12/31 19:52:33;;;;;;;142.18;57.45;;;;;;;2.79;69.29;98285.24;252062;1133;115909;-78
2020/12/31 19:57:36;;;;;;;134.90;59.37;;;;;;;2.80;69.38;98289.56;251904;1133;115242;-75
2020/12/31 20:02:40;;;;;;;120.40;55.90;;;;;;;2.81;69.58;98287.78;251751;1134;115093;-77
2020/12/31 20:07:42;;;;;;;102.27;49.40;;;;;;;2.79;69.47;98285.24;251846;1132;116010;-78
2020/12/31 20:12:48;;;;;;;113.85;46.95;;;;;;;2.77;69.26;98284.44;251893;1131;114942;-78
2020/12/31 20:17:50;;;;;;;110.87;49.87;;;;;;;2.72;68.83;98286.42;251850;1135;115103;-72
2020/12/31 20:22:59;;;;;;;109.20;49.43;;;;;;;2.69;69.30;98278.67;251964;1132;115049;-72
2020/12/31 20:28:03;;;;;;;112.53;50.27;;;;;;;2.72;69.26;98283.80;252047;1132;115102;-73
2020/12/31 20:33:06;;;;;;;107.55;50.40;;;;;;;2.77;69.36;98291.47;251818;1133;115343;-76
2020/12/31 20:38:08;;;;;;;108.45;50.03;;;;;;;2.78;69.56;98293.17;251637;1134;115002;-78
2020/12/31 20:43:11;;;;;;;111.40;47.90;;;;;;;2.77;69.18;98301.98;251792;1134;115012;-74
2020/12/31 20:48:14;;;;;;;104.63;49.63;;;;;;;2.73;69.31;98301.27;251758;1133;115365;-75
2020/12/31 20:53:17;;;;;;;120.20;52.05;;;;;;;2.69;69.37;98298.84;249464;1133;115145;-72
2020/12/31 20:58:19;;;;;;;96.85;44.95;;;;;;;2.66;69.33;98298.96;251092;1133;115661;-74
2020/12/31 21:03:23;;;;;;;100.30;43.20;;;;;;;2.66;69.37;98298.96;251709;1134;114927;-74
2020/12/31 21:08:25;;;;;;;93.03;42.00;;;;;;;2.66;69.33;98301.59;252002;1132;114974;-73
2020/12/31 21:13:28;;;;;;;91.83;42.87;;;;;;;2.64;68.95;98306.04;251919;1132;115020;-73
2020/12/31 21:18:31;;;;;;;86.10;41.37;;;;;;;2.64;69.54;98293.76;251838;1134;114847;-73
2020/12/31 21:23:33;;;;;;;96.37;40.53;;;;;;;2.65;69.42;98297.23;251910;1132;114799;-72
2020/12/31 21:28:36;;;;;;;95.00;44.07;;;;;;;2.61;69.37;98296.51;251839;1132;115256;-72
2020/12/31 21:33:39;;;;;;;92.83;42.67;;;;;;;2.59;69.51;98299.21;251930;1132;114881;-72
2020/12/31 21:38:42;;;;;;;91.90;41.10;;;;;;;2.61;69.52;98293.88;251940;1132;115127;-73
2020/12/31 21:43:47;;;;;;;91.53;41.57;;;;;;;2.63;69.58;98299.09;251854;1132;114938;-74
2020/12/31 21:48:50;;;;;;;67.55;31.23;;;;;;;2.67;69.57;98293.63;251813;1135;115005;-75
2020/12/31 21:53:52;;;;;;;79.20;38.67;;;;;;;2.73;69.87;98292.53;251967;1133;115736;-73
2020/12/31 21:58:55;;;;;;;76.60;39.30;;;;;;;2.77;69.55;98291.47;251973;1134;115255;-77
2020/12/31 22:03:58;;;;;;;84.07;39.13;;;;;;;2.77;69.48;98284.44;252048;1134;115344;-76
2020/12/31 22:09:00;;;;;;;76.97;37.63;;;;;;;2.76;69.26;98292.41;251789;1134;115036;-76
2020/12/31 22:14:02;;;;;;;85.23;40.93;;;;;;;2.72;69.38;98285.58;252040;1132;114992;-78
2020/12/31 22:19:05;;;;;;;80.57;39.85;;;;;;;2.71;69.67;98283.84;252169;1132;115084;-78
2020/12/31 22:24:08;;;;;;;82.77;37.50;;;;;;;2.67;69.37;98280.50;251840;1132;114861;-77
2020/12/31 22:29:10;;;;;;;70.07;35.07;;;;;;;2.72;69.46;98282.95;251734;1132;115286;-77
2020/12/31 22:34:13;;;;;;;75.70;37.20;;;;;;;2.75;69.39;98274.91;251893;1133;116759;-78
2020/12/31 22:39:15;;;;;;;90.37;42.57;;;;;;;2.75;69.42;98285.42;251976;1132;115038;-77
2020/12/31 22:44:18;;;;;;;72.15;35.17;;;;;;;2.73;69.60;98274.98;251723;1134;115068;-75
2020/12/31 22:49:20;;;;;;;87.37;45.53;;;;;;;2.69;69.07;98275.20;251848;1133;115101;-75
2020/12/31 22:54:23;;;;;;;68.73;34.40;;;;;;;2.65;69.23;98271.84;251766;1132;114823;-76
2020/12/31 22:59:25;;;;;;;71.67;35.23;;;;;;;2.60;69.22;98272.02;251968;1132;114938;-76
2020/12/31 23:04:29;;;;;;;83.40;42.77;;;;;;;2.56;69.03;98278.33;251564;1132;115399;-76